createdAt,value
2019-04-11T00:01:01.749Z,7.72
2019-04-11T00:03:31.583Z,7.83
2019-04-11T00:06:01.410Z,8.03
2019-04-11T00:08:30.780Z,7.40
2019-04-11T00:11:00.096Z,8.20
2019-04-11T00:13:31.754Z,7.28
2019-04-11T00:18:28.900Z,7.65
2019-04-11T00:20:58.312Z,7.25
2019-04-11T00:23:28.374Z,7.55
2019-04-11T00:25:58.520Z,8.05
2019-04-11T00:28:29.833Z,7.17
2019-04-11T00:30:59.212Z,7.65
2019-04-11T00:33:29.927Z,7.25
2019-04-11T00:35:59.882Z,7.50
2019-04-11T00:38:29.968Z,7.37
2019-04-11T00:40:59.753Z,8.10
2019-04-11T00:43:35.817Z,8.18
2019-04-11T00:46:01.797Z,7.90
2019-04-11T00:48:31.521Z,8.03
2019-04-11T00:51:01.441Z,7.22
2019-04-11T00:53:30.986Z,7.25
2019-04-11T00:56:00.401Z,6.64
2019-04-11T00:58:30.518Z,7.42
2019-04-11T01:01:01.645Z,7.75
2019-04-11T01:03:31.242Z,7.20
2019-04-11T01:06:01.594Z,6.72
2019-04-11T01:08:31.484Z,6.65
2019-04-11T01:11:01.479Z,6.90
2019-04-11T01:13:41.484Z,7.15
2019-04-11T01:16:04.961Z,6.53
2019-04-11T01:18:34.444Z,6.12
2019-04-11T01:21:04.065Z,6.87
2019-04-11T01:23:33.423Z,7.40
2019-04-11T01:26:03.282Z,6.45
2019-04-11T01:28:32.663Z,6.77
2019-04-11T01:31:13.571Z,6.53
2019-04-11T01:33:44.182Z,6.50
2019-04-11T01:36:13.743Z,6.58
2019-04-11T01:38:44.699Z,6.87
2019-04-11T01:41:14.163Z,6.70
2019-04-11T01:43:52.683Z,6.72
2019-04-11T01:46:14.641Z,6.67
2019-04-11T01:48:45.909Z,7.17
2019-04-11T01:51:16.341Z,7.23
2019-04-11T01:53:46.887Z,6.25
2019-04-11T01:56:16.895Z,7.10
2019-04-11T01:58:46.866Z,6.47
2019-04-11T02:01:30.583Z,6.50
2019-04-11T02:04:07.892Z,6.62
2019-04-11T02:06:38.141Z,6.28
2019-04-11T02:09:11.594Z,6.53
2019-04-11T02:11:41.544Z,6.80
2019-04-11T02:14:16.112Z,6.95
2019-04-11T02:16:43.207Z,7.05
2019-04-11T02:19:12.708Z,6.58
2019-04-11T02:21:42.456Z,7.25
2019-04-11T02:24:25.846Z,6.83
2019-04-11T02:26:56.902Z,5.62
2019-04-11T02:29:26.201Z,6.87
2019-04-11T02:31:57.139Z,6.53
2019-04-11T02:34:27.720Z,6.80
2019-04-11T02:36:58.609Z,7.30
2019-04-11T02:39:30.811Z,5.37
2019-04-11T02:42:01.282Z,7.50
2019-04-11T02:44:45.432Z,6.75
2019-04-11T02:47:08.390Z,7.00
2019-04-11T02:49:33.099Z,7.72
2019-04-11T02:52:02.780Z,6.30
2019-04-11T02:54:33.542Z,6.72
2019-04-11T02:57:03.322Z,7.15
2019-04-11T02:59:34.372Z,6.55
2019-04-11T03:02:06.772Z,6.55
2019-04-11T03:04:37.086Z,6.53
2019-04-11T03:09:37.274Z,7.45
2019-04-11T03:12:07.379Z,6.62
2019-04-11T03:14:54.343Z,6.37
2019-04-11T03:19:54.748Z,6.75
2019-04-11T03:22:10.335Z,6.92
2019-04-11T03:24:40.628Z,6.50
2019-04-11T03:27:11.485Z,6.57
2019-04-11T03:29:42.962Z,6.53
2019-04-11T03:33:00.764Z,6.53
2019-04-11T03:35:38.713Z,7.28
2019-04-11T03:37:37.994Z,7.20
2019-04-11T03:40:11.895Z,7.12
2019-04-11T03:42:41.748Z,6.80
2019-04-11T03:45:15.097Z,8.38
2019-04-11T03:47:37.335Z,7.43
2019-04-11T03:50:03.820Z,7.62
2019-04-11T03:54:58.885Z,7.55
2019-04-11T04:00:00.982Z,6.80
2019-04-11T04:02:32.643Z,7.50
2019-04-11T04:05:03.833Z,7.58
2019-04-11T04:07:33.961Z,7.37
2019-04-11T04:10:05.203Z,7.03
2019-04-11T04:12:37.690Z,7.37
2019-04-11T04:15:13.030Z,7.85
2019-04-11T04:17:46.187Z,7.25
2019-04-11T04:20:28.872Z,8.48
2019-04-11T04:23:13.945Z,7.75
2019-04-11T04:25:45.650Z,7.72
2019-04-11T04:28:15.868Z,8.20
2019-04-11T04:30:47.039Z,7.62
2019-04-11T04:33:19.332Z,8.98
2019-04-11T04:35:49.668Z,8.18
2019-04-11T04:38:20.947Z,8.23
2019-04-11T04:41:07.667Z,8.47
2019-04-11T04:43:27.212Z,8.13
2019-04-11T04:46:13.687Z,8.88
2019-04-11T04:48:29.502Z,7.72
2019-04-11T04:51:03.462Z,8.58
2019-04-11T04:53:30.783Z,8.48
2019-04-11T04:58:31.553Z,7.92
2019-04-11T05:01:01.299Z,9.03
2019-04-11T05:06:03.877Z,8.38
2019-04-11T05:08:34.728Z,8.68
2019-04-11T05:11:05.178Z,8.78
2019-04-11T05:13:36.533Z,8.58
2019-04-11T05:16:16.060Z,8.90
2019-04-11T05:18:37.835Z,8.08
2019-04-11T05:21:07.154Z,8.55
2019-04-11T05:23:37.422Z,8.65
2019-04-11T05:26:06.919Z,9.70
2019-04-11T05:28:37.201Z,8.90
2019-04-11T05:31:06.723Z,9.15
2019-04-11T05:33:36.984Z,9.43
2019-04-11T05:36:06.301Z,9.55
2019-04-11T05:38:35.953Z,8.30
2019-04-11T05:41:09.678Z,7.70
2019-04-11T05:46:23.318Z,9.88
2019-04-11T05:48:42.769Z,9.48
2019-04-11T05:51:13.054Z,8.88
2019-04-11T05:53:43.706Z,8.50
2019-04-11T05:56:13.956Z,9.18
2019-04-11T05:58:47.008Z,9.70
2019-04-11T06:01:16.690Z,9.10
2019-04-11T06:06:36.126Z,8.98
2019-04-11T06:09:02.417Z,9.08
2019-04-11T06:11:54.430Z,8.38
2019-04-11T06:14:23.515Z,8.80
2019-04-11T06:16:56.147Z,8.43
2019-04-11T06:19:43.874Z,9.45
2019-04-11T06:22:13.235Z,8.33
2019-04-11T06:25:00.608Z,8.45
2019-04-11T06:27:33.661Z,8.60
2019-04-11T06:30:24.458Z,9.00
2019-04-11T06:35:59.988Z,8.13
2019-04-11T06:38:47.139Z,8.13
2019-04-11T06:41:26.806Z,7.75
2019-04-11T06:44:12.498Z,6.97
2019-04-11T06:46:53.848Z,8.48
2019-04-11T06:49:28.722Z,7.65
2019-04-11T06:52:05.311Z,7.85
2019-04-11T06:54:41.688Z,7.72
2019-04-11T06:57:13.895Z,7.40
2019-04-11T06:59:44.995Z,7.90
2019-04-11T07:02:19.791Z,8.00
2019-04-11T07:05:00.282Z,7.62
2019-04-11T07:07:32.791Z,7.80
2019-04-11T07:10:06.724Z,7.75
2019-04-11T07:12:55.623Z,8.15
2019-04-11T07:15:27.232Z,8.30
2019-04-11T07:18:14.579Z,8.10
2019-04-11T07:20:46.675Z,9.05
2019-04-11T07:26:10.206Z,8.33
2019-04-11T07:28:41.674Z,8.88
2019-04-11T07:31:30.012Z,8.50
2019-04-11T07:34:04.342Z,8.93
2019-04-11T07:36:50.739Z,7.95
2019-04-11T07:39:24.645Z,9.33
2019-04-11T07:41:56.149Z,8.60
2019-04-11T07:44:28.895Z,8.48
2019-04-11T07:47:01.399Z,9.60
2019-04-11T07:49:35.136Z,9.00
2019-04-11T07:52:08.986Z,8.83
2019-04-11T07:54:38.982Z,9.20
2019-04-11T07:57:26.322Z,8.75
2019-04-11T08:00:04.232Z,9.75
2019-04-11T08:02:53.214Z,8.55
2019-04-11T08:05:30.311Z,8.70
2019-04-11T08:08:17.606Z,9.10
2019-04-11T08:10:48.609Z,8.93
2019-04-11T08:13:31.371Z,8.80
2019-04-11T08:16:18.858Z,8.68
2019-04-11T08:18:55.827Z,9.03
2019-04-11T08:21:44.674Z,8.55
2019-04-11T08:24:16.356Z,8.58
2019-04-11T08:27:03.422Z,8.87
2019-04-11T08:29:33.931Z,8.63
2019-04-11T08:32:17.881Z,8.70
2019-04-11T08:34:51.903Z,8.95
2019-04-11T08:37:25.577Z,9.20
2019-04-11T08:39:57.641Z,9.15
2019-04-11T08:42:44.972Z,9.10
2019-04-11T08:45:17.594Z,9.48
2019-04-11T08:47:52.684Z,9.68
2019-04-11T08:50:24.206Z,9.23
2019-04-11T08:53:04.622Z,9.48
2019-04-11T08:55:45.580Z,9.40
2019-04-11T08:58:08.548Z,9.30
2019-04-11T09:00:40.192Z,9.45
2019-04-11T09:03:26.003Z,8.88
2019-04-11T09:06:08.313Z,9.35
2019-04-11T09:08:56.471Z,8.95
2019-04-11T09:11:29.075Z,9.13
2019-04-11T09:14:16.750Z,9.35
2019-04-11T09:16:50.657Z,9.08
2019-04-11T09:19:39.392Z,8.98
2019-04-11T09:22:13.322Z,8.80
2019-04-11T09:24:44.256Z,9.40
2019-04-11T09:27:24.838Z,9.78
2019-04-11T09:30:11.459Z,9.03
2019-04-11T09:32:56.975Z,10.00
2019-04-11T09:35:33.903Z,9.10
2019-04-11T09:38:10.673Z,8.85
2019-04-11T09:40:43.753Z,8.83
2019-04-11T09:46:16.548Z,9.65
2019-04-11T09:48:56.495Z,9.80
2019-04-11T09:51:29.980Z,8.13
2019-04-11T09:54:05.654Z,8.53
2019-04-11T09:56:37.800Z,8.13
2019-04-11T09:59:14.790Z,8.50
2019-04-11T10:01:56.057Z,7.83
2019-04-11T10:04:27.623Z,8.40
2019-04-11T10:07:03.335Z,8.10
2019-04-11T10:09:50.460Z,8.93
2019-04-11T10:12:40.510Z,8.40
2019-04-11T10:15:11.418Z,9.03
2019-04-11T10:17:58.978Z,9.05
2019-04-11T10:20:28.815Z,9.08
2019-04-11T10:23:16.486Z,9.30
2019-04-11T10:25:47.520Z,8.63
2019-04-11T10:28:27.414Z,9.33
2019-04-11T10:31:02.120Z,9.08
2019-04-11T10:33:35.818Z,8.63
2019-04-11T10:36:25.789Z,9.28
2019-04-11T10:39:00.544Z,9.45
2019-04-11T10:41:35.722Z,9.53
2019-04-11T10:44:05.533Z,9.23
2019-04-11T10:46:42.374Z,10.23
2019-04-11T10:49:19.974Z,9.33
2019-04-11T10:52:00.339Z,9.75
2019-04-11T10:54:32.476Z,9.63
2019-04-11T10:57:06.110Z,9.93
2019-04-11T10:59:38.554Z,9.40
2019-04-11T11:02:26.206Z,10.08
2019-04-11T11:04:59.030Z,9.43
2019-04-11T11:07:30.753Z,8.55
2019-04-11T11:10:04.742Z,8.23
2019-04-11T11:12:38.381Z,8.80
2019-04-11T11:15:11.501Z,9.63
2019-04-11T11:18:31.895Z,9.85
2019-04-11T11:20:54.023Z,9.05
2019-04-11T11:23:29.110Z,9.23
2019-04-11T11:26:07.013Z,8.77
2019-04-11T11:28:38.723Z,8.75
2019-04-11T11:31:09.790Z,9.43
2019-04-11T11:36:26.261Z,10.60
2019-04-11T11:39:13.043Z,9.03
2019-04-11T11:42:01.949Z,9.80
2019-04-11T11:44:33.129Z,9.53
2019-04-11T11:47:19.999Z,8.98
2019-04-11T11:49:57.153Z,9.40
2019-04-11T11:52:41.226Z,9.05
2019-04-11T11:55:18.984Z,9.73
2019-04-11T11:57:53.032Z,9.88
2019-04-11T12:00:25.055Z,8.78
2019-04-11T12:02:56.954Z,9.48
2019-04-11T12:05:29.406Z,9.80
2019-04-11T12:08:15.364Z,9.70
2019-04-11T12:10:47.635Z,9.55
2019-04-11T12:13:24.311Z,9.93
2019-04-11T12:15:57.784Z,10.65
2019-04-11T12:18:31.426Z,10.13
2019-04-11T12:21:03.199Z,10.23
2019-04-11T12:23:53.009Z,8.88
2019-04-11T12:26:33.263Z,9.70
2019-04-11T12:29:12.367Z,9.35
2019-04-11T12:31:43.991Z,10.23
2019-04-11T12:34:18.639Z,10.10
2019-04-11T12:36:50.957Z,10.95
2019-04-11T12:42:16.524Z,10.20
2019-04-11T12:45:06.252Z,10.32
2019-04-11T12:47:54.256Z,9.63
2019-04-11T12:50:41.934Z,9.98
2019-04-11T12:53:12.245Z,10.15
2019-04-11T12:55:49.210Z,10.40
2019-04-11T12:58:28.992Z,10.30
2019-04-11T13:01:11.941Z,10.23
2019-04-11T13:03:42.901Z,10.20
2019-04-11T13:06:35.123Z,9.90
2019-04-11T13:09:07.079Z,10.32
2019-04-11T13:11:43.657Z,10.63
2019-04-11T13:14:31.024Z,11.00
2019-04-11T13:17:04.830Z,10.23
2019-04-11T13:19:47.839Z,10.58
2019-04-11T13:22:18.789Z,10.35
2019-04-11T13:24:55.302Z,10.72
2019-04-11T13:27:26.208Z,10.58
2019-04-11T13:30:03.217Z,9.98
2019-04-11T13:32:34.815Z,9.95
2019-04-11T13:35:10.634Z,10.48
2019-04-11T13:37:57.704Z,11.78
2019-04-11T13:40:28.678Z,11.48
2019-04-11T13:42:59.635Z,12.00
2019-04-11T13:45:30.594Z,11.97
2019-04-11T13:48:17.883Z,11.68
2019-04-11T13:50:48.849Z,11.73
2019-04-11T13:53:35.882Z,11.40
2019-04-11T13:56:06.160Z,11.50
2019-04-11T13:58:46.359Z,10.98
2019-04-11T14:01:15.777Z,11.40
2019-04-11T14:04:01.407Z,11.03
2019-04-11T14:06:30.733Z,10.68
2019-04-11T14:09:08.407Z,11.38
2019-04-11T14:11:39.428Z,11.80
2019-04-11T14:14:16.158Z,11.18
2019-04-11T14:16:49.624Z,11.90
2019-04-11T14:19:36.785Z,12.25
2019-04-11T14:22:07.710Z,12.23
2019-04-11T14:27:21.876Z,11.75
2019-04-11T14:29:55.905Z,11.37
2019-04-11T14:32:26.857Z,11.40
2019-04-11T14:35:00.369Z,10.90
2019-04-11T14:37:40.059Z,11.20
2019-04-11T14:40:20.604Z,11.70
2019-04-11T14:43:00.402Z,11.25
2019-04-11T14:45:36.593Z,12.10
2019-04-11T14:48:22.137Z,11.60
2019-04-11T14:51:03.237Z,10.93
2019-04-11T14:53:51.478Z,12.25
2019-04-11T14:56:28.504Z,11.88
2019-04-11T14:59:15.654Z,11.68
2019-04-11T15:01:46.608Z,12.43
2019-04-11T15:04:33.974Z,11.45
2019-04-11T15:07:04.775Z,11.93
2019-04-11T15:09:52.783Z,12.07
2019-04-11T15:12:23.739Z,12.65
2019-04-11T15:14:58.624Z,11.95
2019-04-11T15:17:38.663Z,12.68
2019-04-11T15:20:12.751Z,11.47
2019-04-11T15:22:49.842Z,12.58
2019-04-11T15:25:26.583Z,12.05
2019-04-11T15:28:07.967Z,12.88
2019-04-11T15:30:49.356Z,13.35
2019-04-11T15:33:36.906Z,12.07
2019-04-11T15:36:19.754Z,11.97
2019-04-11T15:39:06.892Z,11.40
2019-04-11T15:41:37.949Z,12.25
2019-04-11T15:44:14.725Z,12.13
2019-04-11T15:46:47.654Z,11.65
2019-04-11T15:49:21.866Z,13.32
2019-04-11T15:51:49.277Z,11.33
2019-04-11T15:59:38.329Z,11.93
2019-04-11T16:02:11.882Z,11.40
2019-04-11T16:04:48.698Z,11.78
2019-04-11T16:07:37.822Z,11.68
2019-04-11T16:10:11.680Z,12.05
2019-04-11T16:12:43.859Z,12.13
2019-04-11T16:15:14.823Z,12.43
2019-04-11T16:18:02.077Z,12.00
2019-04-11T16:20:31.397Z,11.43
2019-04-11T16:23:18.792Z,11.95
2019-04-11T16:25:49.755Z,11.43
2019-04-11T16:30:56.958Z,11.70
2019-04-11T16:33:39.452Z,11.75
2019-04-11T16:36:10.423Z,12.43
2019-04-11T16:38:49.760Z,12.75
2019-04-11T16:41:36.105Z,12.40
2019-04-11T16:44:26.407Z,12.65
2019-04-11T16:47:13.744Z,11.83
2019-04-11T16:49:43.063Z,12.73
2019-04-11T16:52:12.386Z,11.70
2019-04-11T16:54:54.154Z,12.45
2019-04-11T16:57:23.481Z,13.00
2019-04-11T16:59:52.807Z,12.98
2019-04-11T17:02:24.346Z,12.60
2019-04-11T17:04:55.661Z,13.20
2019-04-11T17:07:37.812Z,12.07
2019-04-11T17:10:08.141Z,11.83
2019-04-11T17:12:37.474Z,12.63
2019-04-11T17:15:07.927Z,11.15
2019-04-11T17:17:37.222Z,11.57
2019-04-11T17:20:07.678Z,11.40
2019-04-11T17:22:37.002Z,11.85
2019-04-11T17:25:06.644Z,12.10
2019-04-11T17:27:35.970Z,12.30
2019-04-11T17:30:08.480Z,12.37
2019-04-11T17:32:37.803Z,12.43
2019-04-11T17:35:08.150Z,11.80
2019-04-11T17:37:37.526Z,12.88
2019-04-11T17:40:07.714Z,11.90
2019-04-11T17:42:37.153Z,12.00
2019-04-11T17:45:06.916Z,11.50
2019-04-11T17:47:36.314Z,9.47
2019-04-11T17:50:08.501Z,13.40
2019-04-11T17:52:37.859Z,11.73
2019-04-11T17:55:07.300Z,12.43
2019-04-11T17:57:36.622Z,11.68
2019-04-11T18:00:09.024Z,12.15
2019-04-11T18:02:39.019Z,10.50
2019-04-11T18:05:09.732Z,11.88
2019-04-11T18:07:41.315Z,12.47
2019-04-11T18:10:10.298Z,11.70
2019-04-11T18:12:39.569Z,11.10
2019-04-11T18:15:08.991Z,11.93
2019-04-11T18:17:38.307Z,12.23
2019-04-11T18:20:09.462Z,11.93
2019-04-11T18:22:38.761Z,10.88
2019-04-11T18:25:08.235Z,11.05
2019-04-11T18:27:37.543Z,12.23
2019-04-11T18:30:09.974Z,11.78
2019-04-11T18:32:39.590Z,11.80
2019-04-11T18:35:09.226Z,11.40
2019-04-11T18:37:38.646Z,11.03
2019-04-11T18:40:10.323Z,11.53
2019-04-11T18:42:39.282Z,11.57
2019-04-11T18:45:09.409Z,11.80
2019-04-11T18:47:38.768Z,10.70
2019-04-11T18:50:08.968Z,11.78
2019-04-11T18:52:38.450Z,10.93
2019-04-11T18:55:08.001Z,10.90
2019-04-11T18:57:38.019Z,11.02
2019-04-11T19:00:11.392Z,10.90
2019-04-11T19:02:40.798Z,10.18
2019-04-11T19:05:10.859Z,10.20
2019-04-11T19:07:42.993Z,10.05
2019-04-11T19:10:15.043Z,9.70
2019-04-11T19:12:46.351Z,9.85
2019-04-11T19:17:46.823Z,9.13
2019-04-11T19:20:18.946Z,9.18
2019-04-11T19:22:48.733Z,9.73
2019-04-11T19:25:18.025Z,9.18
2019-04-11T19:27:50.436Z,10.10
2019-04-11T19:30:18.453Z,9.33
2019-04-11T19:32:47.785Z,9.75
2019-04-11T19:35:17.160Z,8.73
2019-04-11T19:37:46.555Z,9.65
2019-04-11T19:40:16.388Z,9.08
2019-04-11T19:42:49.182Z,9.58
2019-04-11T19:45:19.585Z,9.55
2019-04-11T19:47:52.280Z,9.25
2019-04-11T19:50:20.647Z,9.68
2019-04-11T19:52:49.937Z,9.33
2019-04-11T19:55:26.937Z,9.43
2019-04-11T19:57:56.275Z,9.43
2019-04-11T20:00:25.600Z,10.58
2019-04-11T20:02:55.199Z,10.32
2019-04-11T20:05:24.554Z,10.05
2019-04-11T20:07:53.989Z,9.50
2019-04-11T20:10:23.334Z,9.65
2019-04-11T20:12:52.714Z,9.08
2019-04-11T20:15:23.027Z,9.43
2019-04-11T20:17:52.330Z,9.25
2019-04-11T20:20:21.654Z,9.13
2019-04-11T20:22:58.993Z,9.15
2019-04-11T20:25:22.100Z,9.20
2019-04-11T20:27:51.487Z,9.50
2019-04-11T20:30:22.936Z,9.40
2019-04-11T20:32:51.944Z,8.90
2019-04-11T20:35:28.747Z,9.23
2019-04-11T20:37:54.247Z,8.10
2019-04-11T20:40:23.259Z,8.70
2019-04-11T20:42:54.339Z,8.45
2019-04-11T20:45:25.494Z,9.23
2019-04-11T20:47:54.797Z,9.35
2019-04-11T20:50:24.102Z,8.90
2019-04-11T20:52:53.382Z,9.15
2019-04-11T20:55:22.898Z,8.38
2019-04-11T20:57:52.258Z,9.05
2019-04-11T21:00:24.672Z,9.63
2019-04-11T21:02:52.636Z,9.15
2019-04-11T21:05:21.956Z,9.30
2019-04-11T21:07:51.278Z,7.80
2019-04-11T21:10:20.570Z,7.87
2019-04-11T21:12:49.882Z,9.25
2019-04-11T21:15:19.165Z,8.25
2019-04-11T21:17:48.490Z,7.83
2019-04-11T21:20:17.761Z,8.20
2019-04-11T21:22:47.090Z,8.70
2019-04-11T21:25:16.881Z,7.78
2019-04-11T21:27:47.094Z,9.25
2019-04-11T21:30:17.473Z,8.60
2019-04-11T21:32:47.450Z,9.18
2019-04-11T21:35:19.070Z,8.98
2019-04-11T21:37:48.375Z,9.20
2019-04-11T21:40:18.090Z,8.45
2019-04-11T21:42:48.220Z,8.18
2019-04-11T21:45:18.434Z,8.53
2019-04-11T21:47:48.661Z,8.13
2019-04-11T21:50:19.239Z,8.60
2019-04-11T21:52:49.345Z,8.48
2019-04-11T21:55:19.454Z,7.38
2019-04-11T21:57:49.652Z,8.65
2019-04-11T22:00:27.275Z,8.33
2019-04-11T22:02:58.211Z,8.33
2019-04-11T22:05:29.227Z,7.22
2019-04-11T22:08:00.850Z,8.05
2019-04-11T22:10:29.507Z,7.83
2019-04-11T22:12:58.826Z,7.65
2019-04-11T22:15:28.130Z,8.53
2019-04-11T22:17:57.423Z,8.03
2019-04-11T22:20:26.710Z,7.47
2019-04-11T22:22:56.027Z,9.03
2019-04-11T22:25:25.315Z,7.90
2019-04-11T22:27:54.619Z,7.53
2019-04-11T22:30:25.437Z,8.55
2019-04-11T22:32:57.471Z,8.63
2019-04-11T22:35:29.102Z,7.65
2019-04-11T22:37:59.888Z,7.97
2019-04-11T22:40:31.508Z,7.45
2019-04-11T22:43:00.677Z,8.43
2019-04-11T22:45:29.997Z,8.48
2019-04-11T22:47:59.359Z,9.08
2019-04-11T22:50:28.661Z,7.83
2019-04-11T22:52:57.974Z,8.15
2019-04-11T22:55:27.289Z,8.15
2019-04-11T22:57:56.578Z,8.03
2019-04-11T23:00:25.887Z,8.13
2019-04-11T23:03:16.880Z,8.13
2019-04-11T23:05:46.623Z,7.50
2019-04-11T23:08:18.699Z,8.00
2019-04-11T23:10:46.925Z,7.47
2019-04-11T23:15:45.855Z,7.47
2019-04-11T23:18:15.176Z,8.18
2019-04-11T23:20:44.769Z,8.30
2019-04-11T23:23:14.494Z,8.18
2019-04-11T23:25:43.781Z,8.03
2019-04-11T23:28:15.637Z,7.92
2019-04-11T23:33:12.506Z,8.08
2019-04-11T23:35:41.811Z,7.72
2019-04-11T23:38:11.081Z,7.20
2019-04-11T23:40:40.461Z,8.55
2019-04-11T23:43:09.755Z,9.00
2019-04-11T23:45:39.080Z,7.75
2019-04-11T23:48:08.359Z,8.50
2019-04-11T23:50:37.668Z,7.95
2019-04-11T23:53:06.959Z,8.68
2019-04-11T23:55:36.273Z,9.28
2019-04-11T23:58:05.563Z,8.00
